Accueil
METAR-TAF:

METAR-TAF

Aéroports :

Poitiers, France

Aéroport de Poitiers-Biard

latitude: 46-35N, longitude: 000-19E, altitude: 129 m

Observation

Le bulletin a été fait il y a 36 minutes, à 13:00 UTC
Vent 12 kt de ouest, variant entre ouest/sud-ouest et nord-ouest
Température 14°C
Humidité 55%
Pression 1024 hPa
Visibilité 10 km ou plus
Quelques nuages à une hauteur de 4300 ft
Nuages épars à une hauteur de 5000 ft
Nuages fragmentés à une hauteur de 6200 ft

METAR: LFBI 221300Z AUTO 27012KT 240V310 9999 FEW043 SCT050 BKN062 14/05 Q1024 NOSIG

Heure: 15:36 (13:36 UTC)

Prévision

Le bulletin a été fait il y a 2 heures et 36 minutes, à 11:00 UTC
Prévision valable du 22 à 12 UTC au 23 à 12 UTC
Vent 8 kt de ouest/sud-ouest
Visibilité 10 km ou plus
Nuages fragmentés à une hauteur de 3000 ft
Ciel couvert à une hauteur de 4500 ft

TAF: LFBI 221100Z 2212/2312 24008KT 9999 BKN030 OVC045

Observations et prévisions météorologiques de plus de 4000 aéroports (messages METAR et TAF).

Les stations disponibles sont représentées par des disques jaunes et rouges sur la carte.

Passer la souris dessus pour voir le nom de la station.

Cliquer dessus pour voir les observations et prévisions météorologiques.

Pour changer de carte: cliquez sur les boutons verts avec une croix noire pour zoomer, sur le bouton vert avec un tiret pour effectuer un zoom arrière, ou sur les flèches vertes pour les cartes adjacentes.


METAR-TAF: